createdAt,value
2022-09-03T00:00:05.408Z,3.17
2022-09-03T00:02:57.642Z,3.50
2022-09-03T00:05:49.587Z,3.30
2022-09-03T00:08:40.719Z,3.17
2022-09-03T00:11:29.592Z,3.47
2022-09-03T00:14:12.923Z,3.58
2022-09-03T00:16:57.691Z,3.50
2022-09-03T00:19:33.615Z,3.60
2022-09-03T00:22:07.358Z,3.40
2022-09-03T00:24:38.387Z,3.63
2022-09-03T00:27:15.197Z,3.88
2022-09-03T00:29:51.646Z,3.60
2022-09-03T00:32:48.346Z,3.47
2022-09-03T00:35:33.928Z,3.20
2022-09-03T00:38:01.437Z,3.35
2022-09-03T00:40:57.827Z,3.40
2022-09-03T00:46:35.316Z,3.30
2022-09-03T00:49:05.462Z,3.65
2022-09-03T00:52:01.906Z,3.78
2022-09-03T00:54:53.967Z,3.63
2022-09-03T00:58:03.866Z,4.50
2022-09-03T01:00:30.837Z,3.90
2022-09-03T01:03:11.696Z,3.80
2022-09-03T01:05:58.555Z,3.45
2022-09-03T01:08:31.640Z,4.40
2022-09-03T01:11:31.617Z,4.20
2022-09-03T01:14:26.336Z,4.60
2022-09-03T01:17:07.766Z,5.47
2022-09-03T01:19:59.117Z,4.57
2022-09-03T01:22:47.227Z,4.20
2022-09-03T01:25:39.108Z,4.03
2022-09-03T01:28:13.656Z,4.50
2022-09-03T01:30:47.454Z,3.83
2022-09-03T01:33:38.524Z,4.78
2022-09-03T01:36:27.248Z,4.55
2022-09-03T01:38:59.816Z,4.20
2022-09-03T01:42:03.137Z,4.15
2022-09-03T01:47:51.997Z,4.03
2022-09-03T01:50:30.038Z,3.45
2022-09-03T01:53:09.866Z,3.50
2022-09-03T01:56:25.987Z,3.42
2022-09-03T01:59:18.556Z,4.43
2022-09-03T02:02:23.381Z,3.95
2022-09-03T02:05:30.686Z,4.05
2022-09-03T02:08:03.358Z,3.80
2022-09-03T02:10:33.057Z,3.10
2022-09-03T02:13:07.989Z,3.00
2022-09-03T02:15:41.488Z,3.60
2022-09-03T02:18:17.277Z,4.20
2022-09-03T02:20:45.146Z,4.20
2022-09-03T02:23:12.198Z,3.92
2022-09-03T02:25:43.350Z,3.80
2022-09-03T02:28:27.406Z,4.60
2022-09-03T02:30:54.999Z,4.78
2022-09-03T02:33:22.186Z,3.92
2022-09-03T02:35:49.883Z,4.57
2022-09-03T02:38:21.671Z,4.75
2022-09-03T02:40:48.797Z,4.65
2022-09-03T02:43:41.056Z,4.50
2022-09-03T02:46:14.332Z,4.50
2022-09-03T02:48:41.392Z,4.38
2022-09-03T02:51:14.253Z,4.00
2022-09-03T02:53:43.249Z,3.40
2022-09-03T02:56:10.326Z,3.17
2022-09-03T02:58:37.467Z,3.10
2022-09-03T03:01:04.816Z,3.10
2022-09-03T03:03:32.226Z,3.03
2022-09-03T03:06:03.297Z,3.20
2022-09-03T03:08:30.531Z,3.20
2022-09-03T03:10:59.447Z,3.38
2022-09-03T03:13:27.297Z,3.42
2022-09-03T03:15:58.396Z,3.03
2022-09-03T03:18:30.941Z,2.83
2022-09-03T03:20:58.078Z,3.05
2022-09-03T03:23:25.086Z,3.05
2022-09-03T03:25:52.076Z,2.95
2022-09-03T03:28:20.687Z,3.53
2022-09-03T03:30:49.062Z,3.63
2022-09-03T03:33:16.356Z,3.15
2022-09-03T03:35:43.427Z,3.10
2022-09-03T03:38:10.827Z,3.55
2022-09-03T03:40:40.886Z,3.55
2022-09-03T03:43:07.891Z,3.47
2022-09-03T03:45:35.008Z,3.10
2022-09-03T03:48:02.146Z,2.95
2022-09-03T03:50:29.201Z,3.10
2022-09-03T03:53:01.095Z,3.15
2022-09-03T03:55:28.917Z,3.30
2022-09-03T03:58:02.014Z,3.40
2022-09-03T04:00:29.471Z,3.10
2022-09-03T04:02:56.775Z,2.88
2022-09-03T04:05:24.064Z,2.95
2022-09-03T04:07:51.106Z,2.70
2022-09-03T04:10:18.126Z,3.03
2022-09-03T04:12:45.166Z,3.00
2022-09-03T04:15:12.317Z,2.60
2022-09-03T04:17:39.947Z,2.92
2022-09-03T04:20:07.207Z,2.97
2022-09-03T04:22:34.186Z,2.97
2022-09-03T04:25:04.736Z,3.38
2022-09-03T04:27:31.817Z,2.90
2022-09-03T04:29:58.808Z,3.10
2022-09-03T04:32:45.006Z,2.85
2022-09-03T04:35:12.056Z,3.17
2022-09-03T04:37:39.081Z,3.13
2022-09-03T04:40:06.766Z,3.00
2022-09-03T04:42:33.886Z,3.13
2022-09-03T04:45:01.828Z,3.17
2022-09-03T04:47:29.005Z,3.30
2022-09-03T04:49:56.161Z,3.20
2022-09-03T04:52:23.308Z,3.30
2022-09-03T04:54:51.097Z,3.30
2022-09-03T04:57:18.195Z,3.20
2022-09-03T04:59:45.496Z,3.03
2022-09-03T05:02:13.077Z,3.20
2022-09-03T05:04:40.205Z,3.35
2022-09-03T05:07:07.551Z,3.15
2022-09-03T05:09:35.087Z,3.30
2022-09-03T05:12:02.116Z,3.42
2022-09-03T05:14:29.277Z,3.53
2022-09-03T05:16:56.348Z,3.10
2022-09-03T05:19:23.407Z,3.60
2022-09-03T05:21:50.536Z,3.53
2022-09-03T05:24:18.027Z,3.70
2022-09-03T05:26:45.116Z,3.70
2022-09-03T05:29:12.166Z,3.47
2022-09-03T05:31:40.176Z,3.90
2022-09-03T05:34:08.316Z,3.40
2022-09-03T05:36:37.239Z,3.60
2022-09-03T05:39:05.689Z,3.80
2022-09-03T05:41:34.368Z,4.10
2022-09-03T05:44:02.318Z,4.18
2022-09-03T05:46:33.875Z,3.88
2022-09-03T05:49:07.657Z,3.70
2022-09-03T05:51:36.708Z,3.55
2022-09-03T05:54:04.123Z,4.20
2022-09-03T05:56:32.765Z,3.50
2022-09-03T05:59:02.191Z,3.30
2022-09-03T06:01:34.646Z,3.70
2022-09-03T06:04:06.716Z,3.58
2022-09-03T06:06:36.575Z,3.20
2022-09-03T06:09:11.927Z,3.67
2022-09-03T06:11:40.697Z,3.65
2022-09-03T06:14:09.676Z,3.60
2022-09-03T06:16:39.240Z,3.20
2022-09-03T06:19:09.913Z,3.20
2022-09-03T06:21:42.895Z,2.88
2022-09-03T06:24:26.513Z,3.38
2022-09-03T06:26:56.488Z,3.33
2022-09-03T06:29:23.628Z,3.22
2022-09-03T06:31:51.400Z,3.05
2022-09-03T06:34:18.916Z,2.92
2022-09-03T06:36:46.351Z,2.75
2022-09-03T06:39:13.380Z,2.47
2022-09-03T06:41:40.457Z,2.85
2022-09-03T06:44:11.976Z,2.30
2022-09-03T06:46:42.753Z,3.30
2022-09-03T06:49:10.998Z,2.83
2022-09-03T06:51:39.187Z,2.83
2022-09-03T06:54:08.110Z,3.05
2022-09-03T06:56:40.344Z,3.10
2022-09-03T06:59:17.036Z,3.53
2022-09-03T07:01:46.163Z,3.55
2022-09-03T07:04:19.346Z,3.60
2022-09-03T07:06:47.446Z,3.53
2022-09-03T07:09:15.806Z,4.00
2022-09-03T07:11:47.993Z,3.70
2022-09-03T07:14:17.224Z,3.80
2022-09-03T07:16:44.282Z,3.60
2022-09-03T07:19:13.490Z,3.83
2022-09-03T07:21:46.517Z,3.58
2022-09-03T07:24:15.425Z,3.75
2022-09-03T07:26:49.662Z,3.35
2022-09-03T07:29:20.863Z,3.15
2022-09-03T07:31:52.013Z,3.35
2022-09-03T07:34:21.984Z,3.47
2022-09-03T07:36:51.868Z,3.53
2022-09-03T07:39:19.516Z,3.17
2022-09-03T07:41:47.198Z,3.28
2022-09-03T07:44:16.403Z,3.28
2022-09-03T07:46:45.549Z,3.20
2022-09-03T07:49:12.981Z,2.95
2022-09-03T07:51:40.215Z,2.88
2022-09-03T07:54:11.206Z,2.55
2022-09-03T07:56:40.222Z,2.55
2022-09-03T07:59:08.638Z,2.60
2022-09-03T08:01:36.537Z,2.40
2022-09-03T08:04:05.004Z,2.60
2022-09-03T08:06:37.660Z,2.80
2022-09-03T08:09:08.227Z,2.47
2022-09-03T08:11:38.587Z,2.40
2022-09-03T08:14:08.127Z,2.50
2022-09-03T08:16:38.235Z,2.55
2022-09-03T08:19:05.831Z,2.60
2022-09-03T08:21:33.036Z,2.50
2022-09-03T08:24:02.907Z,2.72
2022-09-03T08:26:35.674Z,2.30
2022-09-03T08:29:03.296Z,2.40
2022-09-03T08:31:31.123Z,2.20
2022-09-03T08:34:00.660Z,2.63
2022-09-03T08:36:31.238Z,2.22
2022-09-03T08:39:04.123Z,2.63
2022-09-03T08:41:43.671Z,2.50
2022-09-03T08:44:29.696Z,2.30
2022-09-03T08:47:10.707Z,2.40
2022-09-03T08:50:00.266Z,2.17
2022-09-03T08:52:47.137Z,3.30
2022-09-03T08:55:50.808Z,2.30
2022-09-03T08:58:21.592Z,1.95
2022-09-03T09:01:07.127Z,2.25
2022-09-03T09:03:39.576Z,1.73
2022-09-03T09:06:23.549Z,2.22
2022-09-03T09:09:13.608Z,2.30
2022-09-03T09:12:16.071Z,1.95
2022-09-03T09:15:00.622Z,2.25
2022-09-03T09:17:42.217Z,2.00
2022-09-03T09:20:15.036Z,2.38
2022-09-03T09:22:47.137Z,2.55
2022-09-03T09:25:20.687Z,2.15
2022-09-03T09:28:00.727Z,2.10
2022-09-03T09:30:32.617Z,1.90
2022-09-03T09:33:00.916Z,1.92
2022-09-03T09:35:28.126Z,2.15
2022-09-03T09:38:00.469Z,2.15
2022-09-03T09:40:45.001Z,2.25
2022-09-03T09:43:16.147Z,2.00
2022-09-03T09:45:48.406Z,1.83
2022-09-03T09:48:31.599Z,2.13
2022-09-03T09:51:13.952Z,2.20
2022-09-03T09:53:41.596Z,1.85
2022-09-03T09:56:09.232Z,1.80
2022-09-03T09:58:36.756Z,2.17
2022-09-03T10:01:23.554Z,2.10
2022-09-03T10:03:56.316Z,2.10
2022-09-03T10:06:44.296Z,2.08
2022-09-03T10:09:15.990Z,2.00
2022-09-03T10:11:57.033Z,1.90
2022-09-03T10:14:35.476Z,2.25
2022-09-03T10:17:11.607Z,2.17
2022-09-03T10:20:31.430Z,2.13
2022-09-03T10:23:16.013Z,1.98
2022-09-03T10:26:00.771Z,2.25
2022-09-03T10:28:30.057Z,2.37
2022-09-03T10:31:36.292Z,2.25
2022-09-03T10:34:31.181Z,2.28
2022-09-03T10:37:14.807Z,2.10
2022-09-03T10:40:09.261Z,2.10
2022-09-03T10:42:51.570Z,2.17
2022-09-03T10:45:21.453Z,2.17
2022-09-03T10:48:07.337Z,2.08
2022-09-03T10:50:53.666Z,2.30
2022-09-03T10:53:50.280Z,2.40
2022-09-03T10:56:37.576Z,2.30
2022-09-03T10:59:31.247Z,1.92
2022-09-03T11:02:30.713Z,2.40
2022-09-03T11:05:23.076Z,2.10
2022-09-03T11:08:15.381Z,2.40
2022-09-03T11:10:52.946Z,2.40
2022-09-03T11:13:35.896Z,2.30
2022-09-03T11:16:12.287Z,2.10
2022-09-03T11:18:51.836Z,2.30
2022-09-03T11:21:24.496Z,2.10
2022-09-03T11:24:17.166Z,2.10
2022-09-03T11:26:48.506Z,2.00
2022-09-03T11:29:36.941Z,2.00
2022-09-03T11:32:22.031Z,2.40
2022-09-03T11:34:51.357Z,2.30
2022-09-03T11:37:23.361Z,2.22
2022-09-03T11:40:04.418Z,2.17
2022-09-03T11:42:42.207Z,2.20
2022-09-03T11:45:27.561Z,2.50
2022-09-03T11:47:55.066Z,2.20
2022-09-03T11:50:34.650Z,2.30
2022-09-03T11:53:25.565Z,2.03
2022-09-03T11:55:56.962Z,2.00
2022-09-03T11:58:31.051Z,2.25
2022-09-03T12:00:59.275Z,2.20
2022-09-03T12:03:30.441Z,2.30
2022-09-03T12:06:23.662Z,2.00
2022-09-03T12:09:18.455Z,2.10
2022-09-03T12:11:45.662Z,2.00
2022-09-03T12:14:31.161Z,2.30
2022-09-03T12:19:53.422Z,2.20
2022-09-03T12:22:24.821Z,2.13
2022-09-03T12:24:52.611Z,2.25
2022-09-03T12:27:26.291Z,2.30
2022-09-03T12:30:02.742Z,2.03
2022-09-03T12:32:40.472Z,2.40
2022-09-03T12:35:58.129Z,2.45
2022-09-03T12:38:07.005Z,2.20
2022-09-03T12:40:35.982Z,2.25
2022-09-03T12:43:49.778Z,2.30
2022-09-03T12:46:17.320Z,2.28
2022-09-03T12:51:52.298Z,2.10
2022-09-03T12:54:23.066Z,2.67
2022-09-03T12:56:56.586Z,2.40
2022-09-03T12:59:27.073Z,2.65
2022-09-03T13:01:58.536Z,2.70
2022-09-03T13:04:34.059Z,2.58
2022-09-03T13:07:05.720Z,2.88
2022-09-03T13:09:37.963Z,2.60
2022-09-03T13:12:06.122Z,2.40
2022-09-03T13:14:52.679Z,2.50
2022-09-03T13:17:38.517Z,2.47
2022-09-03T13:23:09.296Z,2.30
2022-09-03T13:26:06.329Z,2.38
2022-09-03T13:28:55.646Z,2.55
2022-09-03T13:31:49.691Z,2.30
2022-09-03T13:34:38.167Z,2.53
2022-09-03T13:37:26.575Z,2.47
2022-09-03T13:40:02.784Z,2.42
2022-09-03T13:43:13.601Z,2.65
2022-09-03T13:46:08.270Z,2.72
2022-09-03T13:48:59.811Z,2.60
2022-09-03T13:51:52.031Z,2.72
2022-09-03T13:54:54.310Z,2.60
2022-09-03T13:57:39.151Z,2.70
2022-09-03T14:00:14.589Z,2.60
2022-09-03T14:02:57.157Z,2.50
2022-09-03T14:05:26.791Z,2.67
2022-09-03T14:07:54.389Z,2.45
2022-09-03T14:10:24.427Z,2.45
2022-09-03T14:13:07.081Z,2.65
2022-09-03T14:15:58.196Z,2.45
2022-09-03T14:18:37.936Z,2.42
2022-09-03T14:21:34.378Z,2.40
2022-09-03T14:24:15.467Z,2.92
2022-09-03T14:27:00.476Z,2.50
2022-09-03T14:29:33.462Z,2.67
2022-09-03T14:32:44.981Z,2.40
2022-09-03T14:35:28.391Z,3.28
2022-09-03T14:38:10.422Z,2.90
2022-09-03T14:40:57.942Z,3.17
2022-09-03T14:43:30.718Z,2.95
2022-09-03T14:46:07.883Z,3.00
2022-09-03T14:48:47.617Z,2.60
2022-09-03T14:51:45.986Z,2.97
2022-09-03T14:54:37.709Z,3.10
2022-09-03T14:57:42.227Z,3.20
2022-09-03T15:00:20.897Z,3.10
2022-09-03T15:03:28.142Z,2.83
2022-09-03T15:06:03.702Z,3.22
2022-09-03T15:09:04.379Z,3.05
2022-09-03T15:11:35.422Z,3.10
2022-09-03T15:14:19.972Z,3.25
2022-09-03T15:17:00.277Z,3.20
2022-09-03T15:19:48.423Z,3.63
2022-09-03T15:22:49.759Z,3.25
2022-09-03T15:25:36.897Z,3.35
2022-09-03T15:28:37.227Z,3.22
2022-09-03T15:31:41.531Z,3.10
2022-09-03T15:34:53.162Z,3.03
2022-09-03T15:37:33.028Z,2.70
2022-09-03T15:40:31.907Z,2.80
2022-09-03T15:43:24.133Z,3.20
2022-09-03T15:46:23.047Z,2.65
2022-09-03T15:48:52.922Z,3.53
2022-09-03T15:52:04.457Z,2.80
2022-09-03T15:54:37.215Z,2.70
2022-09-03T15:57:12.312Z,2.75
2022-09-03T15:59:47.230Z,2.80
2022-09-03T16:02:32.022Z,2.80
2022-09-03T16:05:06.043Z,2.77
2022-09-03T16:07:39.038Z,2.58
2022-09-03T16:10:25.934Z,2.80
2022-09-03T16:13:27.783Z,2.80
2022-09-03T16:32:21.568Z,2.40
2022-09-03T16:35:26.018Z,2.60
2022-09-03T16:38:08.448Z,2.20
2022-09-03T16:40:59.797Z,2.60
2022-09-03T16:43:44.045Z,2.85
2022-09-03T16:46:35.233Z,2.25
2022-09-03T16:49:25.383Z,2.60
2022-09-03T16:52:37.613Z,2.55
2022-09-03T16:55:59.262Z,2.35
2022-09-03T16:59:10.797Z,2.40
2022-09-03T17:01:46.655Z,2.60
2022-09-03T17:04:17.457Z,2.60
2022-09-03T17:07:03.143Z,2.55
2022-09-03T17:12:19.928Z,2.80
2022-09-03T17:15:06.239Z,2.38
2022-09-03T17:18:21.053Z,2.20
2022-09-03T17:21:24.533Z,2.40
2022-09-03T17:24:17.843Z,2.85
2022-09-03T17:26:52.258Z,2.65
2022-09-03T17:29:54.932Z,2.55
2022-09-03T17:32:22.725Z,2.50
2022-09-03T17:34:49.892Z,2.85
2022-09-03T17:37:48.258Z,2.45
2022-09-03T17:40:33.677Z,2.85
2022-09-03T17:43:13.047Z,3.58
2022-09-03T17:45:56.509Z,3.63
2022-09-03T17:48:51.557Z,3.63
2022-09-03T17:51:33.527Z,3.58
2022-09-03T17:54:17.362Z,3.22
2022-09-03T17:56:51.602Z,3.58
2022-09-03T17:59:45.623Z,3.97
2022-09-03T18:02:23.591Z,4.18
2022-09-03T18:05:00.457Z,4.22
2022-09-03T18:07:42.752Z,4.20
2022-09-03T18:10:25.232Z,3.90
2022-09-03T18:13:13.656Z,4.22
2022-09-03T18:15:55.837Z,3.85
2022-09-03T18:18:32.069Z,3.72
2022-09-03T18:21:26.613Z,3.13
2022-09-03T18:24:50.942Z,3.00
2022-09-03T18:28:00.662Z,3.78
2022-09-03T18:30:46.934Z,3.22
2022-09-03T18:33:36.501Z,3.80
2022-09-03T18:36:23.627Z,3.30
2022-09-03T18:39:09.382Z,3.45
2022-09-03T18:45:20.967Z,3.85
2022-09-03T18:48:20.518Z,3.90
2022-09-03T18:51:25.041Z,3.88
2022-09-03T18:54:23.836Z,3.33
2022-09-03T18:57:10.976Z,3.20
2022-09-03T19:00:13.786Z,2.97
2022-09-03T19:03:36.086Z,4.07
2022-09-03T19:06:40.641Z,3.03
2022-09-03T19:10:11.046Z,3.85
2022-09-03T19:13:12.985Z,3.40
2022-09-03T19:16:11.782Z,4.35
2022-09-03T19:19:37.802Z,3.70
2022-09-03T19:22:31.987Z,3.33
2022-09-03T19:25:29.317Z,5.05
2022-09-03T19:28:58.078Z,3.95
2022-09-03T19:31:54.707Z,3.58
2022-09-03T19:34:57.866Z,3.53
2022-09-03T19:38:20.417Z,3.42
2022-09-03T19:41:24.529Z,3.80
2022-09-03T19:44:31.728Z,3.40
2022-09-03T19:47:21.333Z,3.63
2022-09-03T19:50:39.606Z,4.00
2022-09-03T19:53:37.546Z,4.68
2022-09-03T19:56:45.968Z,5.55
2022-09-03T19:59:39.946Z,5.60
2022-09-03T20:02:25.723Z,4.88
2022-09-03T20:07:57.786Z,4.10
2022-09-03T20:10:34.002Z,4.63
2022-09-03T20:13:08.566Z,4.25
2022-09-03T20:15:42.091Z,3.97
2022-09-03T20:21:13.222Z,4.25
2022-09-03T20:24:00.836Z,4.00
2022-09-03T20:26:48.202Z,4.40
2022-09-03T20:29:35.706Z,4.82
2022-09-03T20:32:18.127Z,4.40
2022-09-03T20:35:10.316Z,4.50
2022-09-03T20:37:57.517Z,4.40
2022-09-03T20:40:54.156Z,4.53
2022-09-03T20:43:56.663Z,4.75
2022-09-03T20:46:39.719Z,5.32
2022-09-03T20:49:38.216Z,5.72
2022-09-03T20:52:27.322Z,5.50
2022-09-03T20:55:14.087Z,5.28
2022-09-03T20:57:49.377Z,5.32
2022-09-03T21:00:18.663Z,5.93
2022-09-03T21:03:13.176Z,5.80
2022-09-03T21:06:12.967Z,5.75
2022-09-03T21:08:43.238Z,6.10
2022-09-03T21:11:16.242Z,6.25
2022-09-03T21:13:46.025Z,7.22
2022-09-03T21:16:36.507Z,7.43
2022-09-03T21:19:40.811Z,6.65
2022-09-03T21:22:25.685Z,6.50
2022-09-03T21:24:59.026Z,6.13
2022-09-03T21:27:43.511Z,5.05
2022-09-03T21:30:14.880Z,4.70
2022-09-03T21:32:54.466Z,4.50
2022-09-03T21:35:34.552Z,3.88
2022-09-03T21:38:20.751Z,4.25
2022-09-03T21:40:55.467Z,4.20
2022-09-03T21:43:30.536Z,4.07
2022-09-03T21:46:09.878Z,3.83
2022-09-03T21:48:42.597Z,4.32
2022-09-03T21:51:18.754Z,3.80
2022-09-03T21:54:17.059Z,4.47
2022-09-03T21:57:12.598Z,4.85
2022-09-03T21:59:45.687Z,4.85
2022-09-03T22:02:18.126Z,3.63
2022-09-03T22:04:45.426Z,3.90
2022-09-03T22:07:53.587Z,4.18
2022-09-03T22:10:35.656Z,3.83
2022-09-03T22:13:25.447Z,3.60
2022-09-03T22:16:01.487Z,4.35
2022-09-03T22:18:31.777Z,3.92
2022-09-03T22:21:13.808Z,4.53
2022-09-03T22:23:55.564Z,4.60
2022-09-03T22:26:36.157Z,4.32
2022-09-03T22:29:14.717Z,4.28
2022-09-03T22:32:07.686Z,4.45
2022-09-03T22:35:02.416Z,4.20
2022-09-03T22:37:48.976Z,5.10
2022-09-03T22:40:41.997Z,5.43
2022-09-03T22:43:27.678Z,5.20
2022-09-03T22:46:09.055Z,5.10
2022-09-03T22:49:06.591Z,3.80
2022-09-03T22:52:04.322Z,4.57
2022-09-03T22:55:02.476Z,4.20
2022-09-03T22:57:33.296Z,3.75
2022-09-03T23:00:07.066Z,4.13
2022-09-03T23:02:34.626Z,4.60
2022-09-03T23:05:28.438Z,4.40
2022-09-03T23:08:25.607Z,3.70
2022-09-03T23:11:02.842Z,3.83
2022-09-03T23:13:42.141Z,4.45
2022-09-03T23:16:32.634Z,3.80
2022-09-03T23:19:05.646Z,4.20
2022-09-03T23:21:41.168Z,3.90
2022-09-03T23:24:14.126Z,3.92
2022-09-03T23:26:52.638Z,3.70
2022-09-03T23:29:24.141Z,3.97
2022-09-03T23:31:53.057Z,3.65
2022-09-03T23:34:20.676Z,3.70
2022-09-03T23:37:33.040Z,4.22
2022-09-03T23:40:28.396Z,3.35
2022-09-03T23:43:33.426Z,3.60
2022-09-03T23:46:15.495Z,3.25
2022-09-03T23:49:16.966Z,3.65
2022-09-03T23:52:00.257Z,4.00
2022-09-03T23:54:47.677Z,4.47
2022-09-03T23:57:25.866Z,4.28
